Time;durP1;ratioP1;P1;durP2;ratioP2;P2;SDS_P1;SDS_P2;PMS_P1;PMS_P2;Temp;Humidity;BMP_temperature;BMP_pressure;BME280_temperature;BME280_humidity;BME280_pressure;Samples;Min_cycle;Max_cycle;Signal;HPM_P1;HPM_P2
2023/05/27 00:00:06;;;;;;;8.50;6.25;;;;;;;19.18;45.52;94048.13;5023335;28;20484;-91
2023/05/27 00:02:33;;;;;;;8.73;5.03;;;;;;;19.20;45.37;94061.34;4999689;28;20056;-90
2023/05/27 00:05:02;;;;;;;7.38;5.32;;;;;;;19.18;45.23;94050.88;5037667;28;20045;-90
2023/05/27 00:07:30;;;;;;;9.48;5.93;;;;;;;19.21;45.63;94049.88;5010021;28;20041;-91
2023/05/27 00:09:59;;;;;;;8.35;5.20;;;;;;;19.18;45.39;94057.09;4995707;28;20095;-91
2023/05/27 00:12:26;;;;;;;10.77;5.53;;;;;;;19.19;45.60;94055.09;5010514;28;20052;-92
2023/05/27 00:14:53;;;;;;;9.18;5.60;;;;;;;19.18;45.49;94057.09;5036614;28;20508;-91
2023/05/27 00:17:19;;;;;;;9.75;5.60;;;;;;;19.20;45.45;94053.13;5024232;28;20045;-91
2023/05/27 00:19:47;;;;;;;7.43;5.40;;;;;;;19.18;45.42;94057.09;5017630;28;20033;-92
2023/05/27 00:22:16;;;;;;;7.63;5.47;;;;;;;19.18;45.36;94059.09;4966061;28;20057;-92
2023/05/27 00:24:42;;;;;;;7.55;4.85;;;;;;;19.17;45.37;94052.13;4964357;28;20046;-91
2023/05/27 00:27:09;;;;;;;9.05;5.25;;;;;;;19.18;45.41;94056.34;4983378;28;20085;-91
2023/05/27 00:29:35;;;;;;;8.77;5.38;;;;;;;19.17;45.46;94052.13;4966619;28;20061;-91
2023/05/27 00:32:12;;;;;;;8.90;5.57;;;;;;;19.17;45.29;94046.63;4957434;28;20070;-90
2023/05/27 00:34:41;;;;;;;7.95;5.10;;;;;;;19.16;45.22;94045.13;4966731;28;20035;-91
2023/05/27 00:37:10;;;;;;;8.93;4.82;;;;;;;19.16;45.24;94056.84;4959973;28;20058;-91
2023/05/27 00:39:44;;;;;;;7.82;5.30;;;;;;;19.15;45.05;94052.63;4995733;28;20162;-91
2023/05/27 00:42:20;;;;;;;8.68;5.60;;;;;;;19.14;45.23;94050.38;4957186;28;20106;-90
2023/05/27 00:44:48;;;;;;;7.65;5.40;;;;;;;19.12;45.07;94056.34;4987242;28;20046;-90
2023/05/27 00:47:15;;;;;;;9.82;5.80;;;;;;;19.12;44.93;94058.34;4954071;28;20043;-91
2023/05/27 00:49:42;;;;;;;8.45;4.85;;;;;;;19.12;44.88;94053.59;4941584;28;20046;-90
2023/05/27 00:52:08;;;;;;;7.88;4.95;;;;;;;19.12;44.77;94050.13;4965011;28;20048;-92
2023/05/27 00:54:35;;;;;;;7.47;5.32;;;;;;;19.12;44.68;94058.34;4997210;28;20107;-90
2023/05/27 00:57:02;;;;;;;8.50;4.82;;;;;;;19.12;44.73;94052.88;4990435;28;20353;-92
2023/05/27 00:59:29;;;;;;;9.18;5.10;;;;;;;19.11;44.77;94054.84;4998035;28;20502;-92
2023/05/27 01:01:56;;;;;;;8.52;4.88;;;;;;;19.15;44.82;94047.13;4993061;28;20049;-91
2023/05/27 01:04:23;;;;;;;7.32;5.13;;;;;;;19.13;44.77;94048.88;5001486;28;20038;-90
2023/05/27 01:07:04;;;;;;;9.68;5.25;;;;;;;19.12;45.08;94047.38;4994189;28;20098;-91
2023/05/27 01:09:45;;;;;;;9.10;5.32;;;;;;;19.12;44.79;94050.13;4994668;28;20467;-91
2023/05/27 01:12:48;;;;;;;9.40;4.72;;;;;;;19.10;44.76;94045.13;5020888;28;20044;-91
2023/05/27 01:15:15;;;;;;;7.43;5.10;;;;;;;19.10;44.41;94038.91;5018669;28;20081;-91
2023/05/27 01:17:43;;;;;;;7.88;5.00;;;;;;;19.12;44.72;94044.63;4980999;28;20054;-91
2023/05/27 01:20:13;;;;;;;8.52;4.55;;;;;;;19.10;44.66;94049.88;5019659;28;20037;-90
2023/05/27 01:22:51;;;;;;;8.88;4.68;;;;;;;19.07;44.75;94050.88;4987623;28;20038;-90
2023/05/27 01:25:19;;;;;;;8.38;5.07;;;;;;;19.07;44.72;94037.91;4994230;28;20132;-92
2023/05/27 01:27:46;;;;;;;7.47;5.22;;;;;;;19.08;44.69;94044.13;4960270;28;20075;-90
2023/05/27 01:30:14;;;;;;;9.90;5.43;;;;;;;19.08;44.58;94055.09;5003108;28;20057;-91
2023/05/27 01:32:59;;;;;;;6.18;4.95;;;;;;;19.07;44.76;94042.66;4990463;28;20069;-91
2023/05/27 01:35:43;;;;;;;6.95;4.78;;;;;;;19.07;44.43;94040.66;4967282;28;20043;-90
2023/05/27 01:38:12;;;;;;;9.05;5.30;;;;;;;19.08;44.29;94039.41;5008775;28;20180;-91
2023/05/27 01:40:42;;;;;;;9.73;5.22;;;;;;;19.08;44.55;94030.44;4980214;28;20070;-91
2023/05/27 01:43:11;;;;;;;6.88;4.93;;;;;;;19.09;44.83;94031.94;5006527;28;20085;-91
2023/05/27 01:45:45;;;;;;;6.10;4.43;;;;;;;19.07;44.91;94028.94;4939950;28;20070;-91
2023/05/27 01:48:19;;;;;;;7.28;4.82;;;;;;;19.06;44.72;94032.94;4921731;28;20039;-91
2023/05/27 01:50:48;;;;;;;6.63;5.07;;;;;;;19.07;44.67;94034.44;4917504;29;20062;-90
2023/05/27 01:53:15;;;;;;;7.45;4.78;;;;;;;19.06;44.76;94036.41;4943071;28;20043;-92
2023/05/27 01:55:40;;;;;;;6.53;4.85;;;;;;;19.05;44.94;94034.19;4939017;28;20043;-91
2023/05/27 01:58:15;;;;;;;7.32;4.80;;;;;;;19.05;44.49;94031.47;4948447;28;20606;-92
2023/05/27 02:00:41;;;;;;;6.40;5.00;;;;;;;19.04;44.79;94027.22;4924774;29;20075;-90
2023/05/27 02:03:06;;;;;;;8.30;5.18;;;;;;;19.04;44.63;94019.00;4919344;29;20048;-91
2023/05/27 02:05:35;;;;;;;7.57;4.78;;;;;;;19.03;44.56;94029.22;4905079;29;20435;-92
2023/05/27 02:08:02;;;;;;;10.05;4.72;;;;;;;19.04;44.70;94025.25;4919765;29;20130;-91
2023/05/27 02:10:29;;;;;;;6.75;4.47;;;;;;;19.06;44.69;94014.50;4869610;29;20041;-91
2023/05/27 02:12:56;;;;;;;12.38;4.95;;;;;;;19.05;44.95;94020.50;4900944;29;20040;-91
2023/05/27 02:15:26;;;;;;;7.03;4.35;;;;;;;19.05;44.94;94023.97;4884318;29;20060;-91
2023/05/27 02:17:58;;;;;;;6.88;4.47;;;;;;;19.05;44.89;94015.03;4894093;29;20052;-91
2023/05/27 02:20:24;;;;;;;6.60;4.85;;;;;;;19.04;44.78;94017.00;4936941;29;20523;-90
2023/05/27 02:22:51;;;;;;;6.70;4.70;;;;;;;19.03;44.51;94021.00;4927524;29;20044;-91
2023/05/27 02:25:18;;;;;;;8.48;4.50;;;;;;;19.05;44.68;94015.03;4920527;29;20562;-90
2023/05/27 02:27:48;;;;;;;5.78;4.50;;;;;;;19.03;44.65;94021.00;4901411;29;20044;-91
2023/05/27 02:30:22;;;;;;;6.50;4.50;;;;;;;19.04;44.88;94016.28;4883972;29;20055;-91
2023/05/27 02:32:49;;;;;;;5.55;4.80;;;;;;;19.04;44.77;94010.78;4902949;29;20657;-91
2023/05/27 02:35:15;;;;;;;8.13;4.97;;;;;;;19.03;45.09;94007.31;4899080;29;20095;-91
2023/05/27 02:37:43;;;;;;;7.63;4.47;;;;;;;19.03;45.17;94010.03;4928537;29;20064;-91
2023/05/27 02:40:42;;;;;;;9.20;5.43;;;;;;;19.02;44.90;94010.53;4900619;29;20549;-92
2023/05/27 02:43:09;;;;;;;7.32;4.65;;;;;;;19.03;45.09;94014.78;4898865;29;20131;-92
2023/05/27 02:45:36;;;;;;;6.82;4.90;;;;;;;19.02;45.04;94019.50;4907034;29;20044;-90
2023/05/27 02:48:09;;;;;;;7.63;5.20;;;;;;;19.02;44.86;94013.28;4888456;29;20053;-90
2023/05/27 02:50:45;;;;;;;8.75;4.90;;;;;;;19.03;45.17;94017.50;4841953;29;20056;-91
2023/05/27 02:53:20;;;;;;;7.22;5.00;;;;;;;19.01;45.15;94014.53;4867208;29;20077;-92
2023/05/27 02:55:47;;;;;;;7.40;4.50;;;;;;;19.03;45.12;94023.00;4910998;29;20092;-90
2023/05/27 02:58:14;;;;;;;9.00;4.78;;;;;;;19.02;45.28;94016.03;4880514;29;20048;-91
2023/05/27 03:00:40;;;;;;;8.02;4.50;;;;;;;19.01;44.74;94022.75;4861007;29;20046;-90
2023/05/27 03:03:06;;;;;;;8.70;4.75;;;;;;;19.00;45.12;94021.25;4869616;29;20053;-91
2023/05/27 03:05:40;;;;;;;8.60;4.97;;;;;;;19.01;44.94;94022.75;4853124;29;20063;-90
2023/05/27 03:08:08;;;;;;;8.57;4.85;;;;;;;19.01;45.05;94026.22;4825484;29;20044;-92
2023/05/27 03:10:36;;;;;;;7.50;5.18;;;;;;;19.01;45.00;94028.22;4852399;29;20038;-92
2023/05/27 03:13:07;;;;;;;7.90;4.90;;;;;;;19.01;45.07;94028.22;4831036;29;20043;-91
2023/05/27 03:15:39;;;;;;;7.07;4.90;;;;;;;19.02;45.07;94021.50;4826780;29;20418;-91
2023/05/27 03:18:08;;;;;;;11.00;4.85;;;;;;;19.02;45.12;94014.03;4821273;29;20585;-91
2023/05/27 03:20:33;;;;;;;9.30;4.68;;;;;;;19.04;45.12;94017.00;4895496;29;20072;-90
2023/05/27 03:23:01;;;;;;;10.63;4.70;;;;;;;18.99;45.02;94017.00;4855433;29;20383;-90
2023/05/27 03:25:29;;;;;;;10.85;4.80;;;;;;;18.99;45.25;94017.75;4869723;29;20052;-90
2023/05/27 03:28:16;;;;;;;9.48;4.68;;;;;;;18.98;44.99;94016.25;4895184;29;20039;-91
2023/05/27 03:30:43;;;;;;;7.82;4.30;;;;;;;19.00;45.01;94024.75;4885596;28;20660;-91
2023/05/27 03:33:14;;;;;;;7.50;4.85;;;;;;;19.01;44.93;94034.44;4961300;28;20492;-92
2023/05/27 03:35:40;;;;;;;8.63;4.95;;;;;;;19.00;45.00;94024.00;4978426;28;20496;-91
2023/05/27 03:38:21;;;;;;;6.70;4.70;;;;;;;18.96;45.01;94032.47;5012085;28;20096;-91
2023/05/27 03:40:47;;;;;;;6.85;4.20;;;;;;;18.98;45.40;94026.47;5017238;28;20034;-90
2023/05/27 03:43:15;;;;;;;6.45;4.90;;;;;;;18.99;45.04;94022.50;4994948;28;20103;-91
2023/05/27 03:45:41;;;;;;;9.85;5.00;;;;;;;18.98;44.76;94026.47;5021012;28;20128;-91
2023/05/27 03:48:07;;;;;;;7.43;4.90;;;;;;;18.98;44.75;94021.75;5035613;28;20048;-92
2023/05/27 03:50:36;;;;;;;8.23;4.88;;;;;;;19.01;45.02;94028.22;5018260;28;20049;-90
2023/05/27 03:53:05;;;;;;;8.82;4.93;;;;;;;18.99;44.85;94025.97;5019915;28;20060;-92
2023/05/27 03:55:30;;;;;;;6.90;4.80;;;;;;;18.99;44.80;94025.97;4990379;28;20038;-92
2023/05/27 03:57:57;;;;;;;8.48;4.32;;;;;;;19.00;44.65;94015.78;4984338;28;20114;-92
2023/05/27 04:00:24;;;;;;;6.28;4.57;;;;;;;19.00;44.79;94018.50;4996155;28;20402;-91
2023/05/27 04:02:56;;;;;;;7.80;4.80;;;;;;;19.02;44.75;94024.25;4983311;28;20424;-91
2023/05/27 04:05:23;;;;;;;8.30;4.55;;;;;;;19.02;44.89;94021.50;5004557;28;20066;-91
2023/05/27 04:07:51;;;;;;;6.38;4.13;;;;;;;19.01;44.80;94020.75;4987256;28;20529;-90
2023/05/27 04:10:26;;;;;;;8.27;4.50;;;;;;;19.02;44.64;94029.72;4944539;28;20101;-90
2023/05/27 04:12:53;;;;;;;10.05;4.85;;;;;;;19.04;44.69;94025.25;4929798;28;20037;-91
2023/05/27 04:15:48;;;;;;;9.00;5.15;;;;;;;19.04;44.76;94029.97;4949572;28;20043;-92
2023/05/27 04:18:23;;;;;;;6.97;4.78;;;;;;;19.04;44.57;94038.94;4943390;28;20692;-91
2023/05/27 04:20:50;;;;;;;7.75;4.80;;;;;;;19.06;44.91;94033.69;4971073;28;20042;-91
2023/05/27 04:23:23;;;;;;;7.75;4.80;;;;;;;19.06;44.62;94028.19;4943082;28;20050;-90
2023/05/27 04:25:55;;;;;;;6.22;4.32;;;;;;;19.06;44.42;94032.94;4959068;28;20050;-90
2023/05/27 04:28:21;;;;;;;7.85;4.57;;;;;;;19.04;44.26;94033.47;4942849;28;20063;-90
2023/05/27 04:30:50;;;;;;;7.40;4.65;;;;;;;19.06;44.65;94032.94;4953171;28;21057;-91
2023/05/27 04:33:24;;;;;;;7.88;4.53;;;;;;;19.07;44.62;94037.16;4945669;28;20545;-91
2023/05/27 04:36:17;;;;;;;6.50;4.50;;;;;;;19.09;44.62;94035.41;4944240;29;20031;-91
2023/05/27 04:38:45;;;;;;;9.02;5.15;;;;;;;19.08;44.43;94035.91;4953554;28;20042;-91
2023/05/27 04:41:16;;;;;;;6.93;4.63;;;;;;;19.11;44.41;94034.94;5051931;22;20171;-92
2023/05/27 04:43:46;;;;;;;8.20;5.47;;;;;;;19.14;44.25;94039.41;5018712;28;20052;-92
2023/05/27 04:46:17;;;;;;;9.38;5.05;;;;;;;19.10;44.41;94033.44;4962618;28;20043;-92
2023/05/27 04:48:50;;;;;;;9.05;4.63;;;;;;;19.11;44.60;94032.19;4964970;29;20093;-90
2023/05/27 04:51:19;;;;;;;8.40;4.55;;;;;;;19.15;44.70;94036.16;4945475;28;20094;-91
2023/05/27 04:53:48;;;;;;;6.75;4.25;;;;;;;19.12;44.88;94041.91;4966057;28;20018;-91
2023/05/27 04:56:26;;;;;;;7.43;4.53;;;;;;;19.13;44.51;94033.19;4925333;28;20046;-90
2023/05/27 04:59:01;;;;;;;7.47;4.72;;;;;;;19.15;44.72;94043.66;5088835;22;20054;-91
2023/05/27 05:04:13;;;;;;;6.57;4.55;;;;;;;19.17;44.33;94039.16;5037044;28;20026;-92
2023/05/27 05:07:03;;;;;;;5.07;4.38;;;;;;;19.17;44.75;94030.19;4986806;28;20050;-90
2023/05/27 05:09:36;;;;;;;7.68;4.93;;;;;;;19.18;44.75;94035.19;5297966;23;20131;-92
2023/05/27 05:12:07;;;;;;;8.40;4.13;;;;;;;19.18;44.94;94037.16;5093170;22;20046;-92
2023/05/27 05:14:38;;;;;;;7.00;4.28;;;;;;;19.20;44.83;94051.13;4988683;28;20034;-91
2023/05/27 05:17:13;;;;;;;6.75;4.45;;;;;;;19.20;44.70;94045.63;4978459;28;20045;-91
2023/05/27 05:20:00;;;;;;;7.47;4.03;;;;;;;19.25;44.70;94050.38;4989168;28;20050;-91
2023/05/27 05:22:57;;;;;;;7.53;4.63;;;;;;;19.26;44.86;94048.38;4978754;28;20053;-92
2023/05/27 05:28:06;;;;;;;7.72;4.45;;;;;;;19.28;44.78;94049.34;5183637;23;20066;-91
2023/05/27 05:30:40;;;;;;;6.22;3.92;;;;;;;19.31;44.83;94050.34;4994520;28;20042;-91
2023/05/27 05:39:16;;;;;;;6.20;4.00;;;;;;;19.34;45.08;94057.56;5035473;28;20037;-92
2023/05/27 05:41:51;;;;;;;7.38;4.53;;;;;;;19.36;44.93;94055.06;5019615;28;20101;-90
2023/05/27 05:44:18;;;;;;;;;;;;;;;19.37;44.96;94054.56;5010539;28;20228;-91
2023/05/27 05:46:47;;;;;;;8.55;4.70;;;;;;;19.36;44.75;94055.81;5016971;28;19925;-91
2023/05/27 05:49:15;;;;;;;5.68;4.40;;;;;;;19.36;45.06;94058.56;5031251;28;20048;-91
2023/05/27 05:51:41;;;;;;;9.90;4.40;;;;;;;19.36;45.01;94044.09;5020658;28;20045;-90
2023/05/27 05:54:17;;;;;;;9.40;4.88;;;;;;;19.38;44.77;94055.31;5052044;28;20068;-91
2023/05/27 05:56:49;;;;;;;6.68;4.20;;;;;;;19.40;45.01;94052.81;5002277;28;20567;-91
2023/05/27 05:59:15;;;;;;;11.20;4.63;;;;;;;19.38;44.77;94058.06;4981522;28;20081;-91
2023/05/27 06:01:41;;;;;;;7.95;4.40;;;;;;;19.40;44.98;94048.09;4987083;28;20042;-90
2023/05/27 06:04:10;;;;;;;8.27;4.28;;;;;;;19.41;45.02;94049.59;4997556;28;20045;-90
2023/05/27 06:06:53;;;;;;;7.85;4.00;;;;;;;19.44;44.91;94045.84;4961279;28;20043;-92
2023/05/27 06:09:25;;;;;;;8.93;4.38;;;;;;;19.44;44.63;94047.84;4939570;28;20085;-91
2023/05/27 06:12:00;;;;;;;5.03;4.03;;;;;;;19.45;44.92;94049.34;4965142;28;20063;-90
2023/05/27 06:14:27;;;;;;;5.55;4.35;;;;;;;19.43;44.75;94058.06;4951597;28;20564;-91
2023/05/27 06:16:52;;;;;;;5.82;3.75;;;;;;;19.45;44.69;94052.81;4932980;29;20031;-90
2023/05/27 06:19:30;;;;;;;6.30;3.70;;;;;;;19.47;44.83;94058.56;4945191;29;20055;-90
2023/05/27 06:21:58;;;;;;;6.90;4.53;;;;;;;19.47;44.52;94068.78;4921095;29;20040;-91
2023/05/27 06:24:29;;;;;;;7.38;4.70;;;;;;;19.48;44.46;94071.03;4869629;29;20042;-90
2023/05/27 06:26:55;;;;;;;6.45;4.50;;;;;;;19.47;44.54;94061.28;4862536;29;20052;-90
2023/05/27 06:29:25;;;;;;;6.60;4.43;;;;;;;19.52;44.53;94071.50;4871280;29;20052;-90
2023/05/27 06:31:58;;;;;;;6.22;4.43;;;;;;;19.51;44.73;94055.56;4859928;29;20037;-92
2023/05/27 06:34:27;;;;;;;5.68;3.78;;;;;;;19.52;44.78;94062.53;4867990;29;20110;-91
2023/05/27 06:37:06;;;;;;;8.02;4.70;;;;;;;19.53;44.83;94061.28;4848038;29;20057;-91
2023/05/27 06:39:41;;;;;;;8.40;4.22;;;;;;;19.54;44.68;94051.81;4860835;29;20037;-91
2023/05/27 06:42:11;;;;;;;8.18;4.32;;;;;;;19.55;44.63;94069.78;4860849;29;20064;-90
2023/05/27 06:44:47;;;;;;;5.97;4.18;;;;;;;19.56;44.95;94063.03;4888899;29;20072;-90
2023/05/27 06:47:18;;;;;;;6.97;4.07;;;;;;;19.55;44.75;94075.25;4881814;29;20041;-92
2023/05/27 06:49:46;;;;;;;7.75;4.13;;;;;;;19.57;44.69;94085.72;4876819;29;20108;-91
2023/05/27 06:52:15;;;;;;;7.57;4.43;;;;;;;19.57;44.56;94063.78;4872419;29;20170;-92
2023/05/27 06:54:45;;;;;;;6.40;4.30;;;;;;;19.58;44.74;94068.75;4885034;29;20120;-90
2023/05/27 06:57:32;;;;;;;6.88;4.07;;;;;;;19.58;44.65;94074.25;4866181;29;20538;-91
2023/05/27 06:59:58;;;;;;;7.03;4.38;;;;;;;19.59;44.63;94066.78;4918525;29;20142;-91
2023/05/27 07:02:29;;;;;;;5.95;4.43;;;;;;;19.62;44.89;94077.50;4937758;29;20040;-91
2023/05/27 07:05:14;;;;;;;8.50;4.57;;;;;;;19.61;44.92;94080.72;4893019;28;20050;-91
2023/05/27 07:07:43;;;;;;;7.13;4.15;;;;;;;19.62;44.57;94074.00;4951306;28;20059;-91
2023/05/27 07:10:29;;;;;;;8.82;4.28;;;;;;;19.62;44.46;94072.00;4932392;28;20542;-91
2023/05/27 07:13:00;;;;;;;6.53;4.03;;;;;;;19.62;44.83;94072.00;4974359;28;20040;-91
2023/05/27 07:15:27;;;;;;;5.72;4.28;;;;;;;19.60;44.50;94074.50;4962811;29;20111;-90
2023/05/27 07:17:54;;;;;;;7.85;4.72;;;;;;;19.61;44.27;94073.25;4922633;29;20048;-91
2023/05/27 07:20:20;;;;;;;6.97;4.13;;;;;;;19.61;44.45;94076.00;4902774;29;20068;-91
2023/05/27 07:23:17;;;;;;;9.23;4.30;;;;;;;19.64;44.68;94071.50;4926789;29;20047;-91
2023/05/27 07:25:44;;;;;;;6.05;4.30;;;;;;;19.61;44.28;94086.97;4929142;29;20059;-91
2023/05/27 07:28:11;;;;;;;10.25;4.97;;;;;;;19.60;43.46;94079.97;4948749;29;20039;-91
2023/05/27 07:30:44;;;;;;;19.65;5.65;;;;;;;19.62;43.19;94065.78;4874439;29;20047;-91
2023/05/27 07:33:15;;;;;;;33.60;6.07;;;;;;;19.61;43.51;94064.28;4896184;29;20036;-91
2023/05/27 07:35:43;;;;;;;23.08;5.18;;;;;;;19.59;43.78;94072.25;4955881;23;20106;-91
2023/05/27 07:38:13;;;;;;;23.20;5.75;;;;;;;19.59;43.39;94070.25;5087975;22;20447;-91
2023/05/27 07:40:42;;;;;;;20.80;5.38;;;;;;;19.55;43.55;94067.03;4932550;28;20576;-91
2023/05/27 07:43:10;;;;;;;20.77;5.18;;;;;;;19.57;43.47;94061.78;4995535;28;20054;-91
2023/05/27 07:45:49;;;;;;;12.63;5.15;;;;;;;19.61;43.92;94056.78;4950007;28;20042;-92
2023/05/27 07:48:16;;;;;;;14.00;4.90;;;;;;;19.60;43.84;94058.03;4989932;28;20068;-91
2023/05/27 07:51:16;;;;;;;21.30;5.95;;;;;;;19.56;43.19;94060.28;5008991;28;20551;-91
2023/05/27 07:54:06;;;;;;;27.42;5.68;;;;;;;19.58;42.24;94063.28;5018728;28;20121;-90
2023/05/27 07:56:34;;;;;;;22.60;6.00;;;;;;;19.56;42.65;94051.31;4997666;28;20491;-91
2023/05/27 07:59:01;;;;;;;15.88;4.90;;;;;;;19.53;42.27;94061.28;5010200;28;20066;-91
2023/05/27 08:01:31;;;;;;;14.10;4.40;;;;;;;19.49;42.21;94067.00;5006393;28;20044;-91
2023/05/27 08:04:12;;;;;;;17.42;4.93;;;;;;;19.52;42.65;94051.56;4989779;28;20026;-91
2023/05/27 08:06:55;;;;;;;15.25;4.97;;;;;;;19.54;42.61;94048.31;5007431;28;20546;-91
2023/05/27 08:09:31;;;;;;;15.85;5.25;;;;;;;19.59;42.85;94053.06;4983146;28;20083;-91
2023/05/27 08:12:01;;;;;;;13.88;4.50;;;;;;;19.57;42.70;94048.06;4965953;28;20601;-91
2023/05/27 08:14:32;;;;;;;15.45;4.88;;;;;;;19.58;42.36;94049.56;4922235;29;20059;-91
2023/05/27 08:16:59;;;;;;;18.60;5.13;;;;;;;19.60;42.34;94049.81;4904294;29;20043;-90
2023/05/27 08:19:26;;;;;;;13.38;4.28;;;;;;;19.63;42.83;94051.56;4929548;29;20050;-91
2023/05/27 08:21:52;;;;;;;16.98;4.93;;;;;;;19.64;43.06;94044.06;4893590;29;20036;-92
2023/05/27 08:24:20;;;;;;;18.60;4.97;;;;;;;19.64;43.18;94033.84;4925491;28;20051;-90
2023/05/27 08:26:47;;;;;;;18.02;5.15;;;;;;;19.66;43.49;94041.56;4910917;29;20114;-91
2023/05/27 08:29:14;;;;;;;15.25;5.30;;;;;;;19.68;43.01;94041.81;4901660;29;20047;-91
2023/05/27 08:31:40;;;;;;;15.32;6.07;;;;;;;19.69;43.58;94032.34;4925592;29;20122;-91
2023/05/27 08:34:06;;;;;;;12.85;5.10;;;;;;;19.68;43.01;94036.34;4876743;29;20083;-91
2023/05/27 08:36:32;;;;;;;8.88;4.10;;;;;;;19.69;42.81;94035.84;4867852;29;20048;-90
2023/05/27 08:38:58;;;;;;;9.45;3.90;;;;;;;19.69;43.15;94037.81;4851371;29;20159;-90
2023/05/27 08:41:26;;;;;;;9.20;4.30;;;;;;;19.71;43.47;94038.03;4862110;29;20045;-92
2023/05/27 08:44:00;;;;;;;10.13;4.13;;;;;;;19.70;43.17;94036.59;4867445;29;20049;-92
2023/05/27 08:46:31;;;;;;;10.68;4.43;;;;;;;19.71;43.64;94032.56;4821421;29;20076;-91
2023/05/27 08:49:03;;;;;;;6.07;3.85;;;;;;;19.72;43.68;94036.78;4863228;29;20093;-91
2023/05/27 08:51:32;;;;;;;8.35;3.90;;;;;;;19.73;43.92;94038.28;4846499;29;20131;-90
2023/05/27 08:54:01;;;;;;;9.95;3.83;;;;;;;19.72;43.79;94034.06;4908986;29;20463;-90
2023/05/27 08:56:27;;;;;;;13.95;3.85;;;;;;;19.73;43.92;94027.31;4889644;29;20634;-91
2023/05/27 08:58:54;;;;;;;7.38;3.63;;;;;;;19.71;43.88;94033.31;4876353;29;20078;-91
2023/05/27 09:01:27;;;;;;;11.60;3.90;;;;;;;19.73;44.05;94033.56;4870348;29;20649;-91
2023/05/27 09:03:55;;;;;;;8.75;4.00;;;;;;;19.73;43.75;94027.31;4876849;29;20057;-90
2023/05/27 09:06:25;;;;;;;7.07;3.22;;;;;;;19.73;44.38;94022.59;4931457;29;20063;-91
2023/05/27 09:08:55;;;;;;;9.73;4.18;;;;;;;19.73;44.18;94028.06;4912473;29;20127;-91
2023/05/27 09:11:26;;;;;;;5.00;3.60;;;;;;;19.74;44.22;94026.06;4905121;28;20139;-92
2023/05/27 09:14:11;;;;;;;9.48;3.78;;;;;;;19.74;44.51;94018.59;5024585;22;20068;-91
2023/05/27 09:16:48;;;;;;;5.95;4.13;;;;;;;19.75;44.09;94027.56;5015323;28;20415;-92
2023/05/27 09:19:20;;;;;;;9.82;3.72;;;;;;;19.75;44.43;94030.31;5030740;28;20041;-92
2023/05/27 09:21:47;;;;;;;8.77;3.88;;;;;;;19.74;44.26;94026.06;5041621;28;20113;-92
2023/05/27 09:24:18;;;;;;;6.75;3.50;;;;;;;19.75;44.46;94024.81;5008364;28;20624;-91
2023/05/27 09:26:43;;;;;;;9.48;3.58;;;;;;;19.74;44.31;94024.06;5004900;28;20034;-92
2023/05/27 09:29:11;;;;;;;6.75;3.58;;;;;;;19.75;44.65;94011.09;4979090;28;20037;-92
2023/05/27 09:31:42;;;;;;;7.20;3.78;;;;;;;19.74;44.76;94023.31;4996767;28;20460;-91
2023/05/27 09:34:17;;;;;;;10.80;4.10;;;;;;;19.74;44.28;94021.34;4981576;28;20042;-91
2023/05/27 09:36:45;;;;;;;7.50;3.25;;;;;;;19.74;44.28;94021.34;4994155;28;20398;-91
2023/05/27 09:39:12;;;;;;;9.35;3.55;;;;;;;19.75;44.28;94022.81;4993081;28;20121;-90
2023/05/27 09:41:58;;;;;;;7.30;3.60;;;;;;;19.75;44.04;94013.84;5020050;28;20428;-90
2023/05/27 09:44:27;;;;;;;8.73;3.92;;;;;;;19.76;43.99;94024.31;5022920;28;20033;-91
2023/05/27 09:46:54;;;;;;;6.60;3.22;;;;;;;19.76;44.25;94020.81;5040555;28;20065;-91
2023/05/27 09:49:21;;;;;;;8.32;3.78;;;;;;;19.75;44.06;94014.59;5033289;28;20048;-91
2023/05/27 09:51:47;;;;;;;5.38;3.20;;;;;;;19.75;44.28;94020.09;4997308;28;20172;-90
2023/05/27 09:54:19;;;;;;;6.47;3.40;;;;;;;19.77;44.29;94014.84;4975137;28;20054;-91
2023/05/27 09:56:49;;;;;;;6.85;3.50;;;;;;;19.76;44.42;94012.59;4970562;28;20038;-91
2023/05/27 09:59:16;;;;;;;5.80;3.42;;;;;;;19.77;43.99;94008.59;4933251;29;20050;-91
2023/05/27 10:01:44;;;;;;;8.18;3.40;;;;;;;19.75;44.33;94009.09;4945838;29;20074;-90
2023/05/27 10:04:10;;;;;;;7.25;3.60;;;;;;;19.76;44.24;93996.13;4942596;28;20038;-91
2023/05/27 10:06:37;;;;;;;7.97;3.70;;;;;;;19.76;44.37;94005.13;4933427;29;20035;-92
2023/05/27 10:09:03;;;;;;;6.57;3.35;;;;;;;19.77;44.07;94006.59;4927311;29;20045;-91
2023/05/27 10:11:38;;;;;;;7.45;3.90;;;;;;;19.77;43.59;93992.16;4900555;29;20571;-91
2023/05/27 10:14:27;;;;;;;7.20;4.00;;;;;;;19.76;44.42;93996.88;4871115;29;20461;-91
2023/05/27 10:16:55;;;;;;;5.90;3.58;;;;;;;19.76;44.12;93996.88;4892657;29;20055;-91
2023/05/27 10:19:22;;;;;;;5.90;3.25;;;;;;;19.76;44.27;93998.88;4870744;29;20518;-90
2023/05/27 10:21:48;;;;;;;8.82;4.00;;;;;;;19.77;44.19;93989.41;4866058;29;20040;-90
2023/05/27 10:24:16;;;;;;;9.73;3.85;;;;;;;19.77;44.29;93998.38;4856262;29;20059;-92
2023/05/27 10:26:44;;;;;;;6.90;3.42;;;;;;;19.76;44.33;93991.41;4865031;29;20038;-91
2023/05/27 10:29:11;;;;;;;6.00;3.50;;;;;;;19.78;44.39;93988.16;4841098;29;20068;-92
2023/05/27 10:31:48;;;;;;;5.68;2.95;;;;;;;19.77;44.19;93987.41;4859573;29;20037;-91
2023/05/27 10:34:14;;;;;;;6.70;3.05;;;;;;;19.76;44.06;93985.16;5037261;23;20106;-92
2023/05/27 10:36:42;;;;;;;7.50;3.40;;;;;;;19.78;44.05;93988.16;5056101;28;20080;-91
2023/05/27 10:39:18;;;;;;;6.03;3.33;;;;;;;19.78;44.38;93990.91;5030934;28;20025;-91
2023/05/27 10:41:56;;;;;;;6.97;3.00;;;;;;;19.76;44.21;93982.41;5047546;28;20512;-91
2023/05/27 10:44:31;;;;;;;3.75;2.60;;;;;;;19.75;44.36;93981.69;5028661;28;20044;-91
2023/05/27 10:47:03;;;;;;;6.45;3.65;;;;;;;19.76;44.30;93979.69;5013246;28;20040;-91
2023/05/27 10:49:36;;;;;;;6.43;3.38;;;;;;;19.76;44.30;93982.41;5035087;28;20042;-91
2023/05/27 10:52:12;;;;;;;5.07;3.17;;;;;;;19.76;44.47;93983.16;5042471;28;20128;-92
2023/05/27 10:54:46;;;;;;;5.13;2.90;;;;;;;19.77;44.58;93987.41;5005413;28;20063;-91
2023/05/27 10:57:14;;;;;;;5.38;3.28;;;;;;;19.75;44.49;93973.44;5042115;28;20067;-91
2023/05/27 10:59:41;;;;;;;4.93;3.17;;;;;;;19.77;44.50;93981.16;5043169;28;20044;-92
2023/05/27 11:02:07;;;;;;;5.18;3.00;;;;;;;19.77;44.43;93967.44;5039733;28;20505;-92
2023/05/27 11:04:38;;;;;;;4.78;3.33;;;;;;;19.77;44.75;93967.44;4994280;28;20419;-91
2023/05/27 11:07:12;;;;;;;6.15;3.60;;;;;;;19.76;44.45;93972.19;4978282;28;20100;-91
2023/05/27 11:09:54;;;;;;;4.93;3.17;;;;;;;19.77;44.32;93975.69;4952011;28;20106;-90
2023/05/27 11:12:21;;;;;;;5.72;3.45;;;;;;;19.77;44.50;93972.94;4977222;28;20046;-90
2023/05/27 11:14:53;;;;;;;6.43;2.90;;;;;;;19.77;44.61;93979.19;4978915;28;20113;-91
2023/05/27 11:17:28;;;;;;;3.83;3.03;;;;;;;19.77;44.38;93964.72;4956075;28;20086;-91
2023/05/27 11:19:58;;;;;;;5.75;3.20;;;;;;;19.78;44.73;93963.47;4979766;28;20130;-91
2023/05/27 11:22:24;;;;;;;6.07;2.90;;;;;;;19.77;44.69;93967.44;4944115;28;20088;-92
2023/05/27 11:24:57;;;;;;;5.90;3.38;;;;;;;19.77;44.41;93970.19;4975224;28;20046;-91
2023/05/27 11:27:40;;;;;;;5.80;3.22;;;;;;;19.77;44.38;93970.19;4994881;28;20038;-91
2023/05/27 11:30:09;;;;;;;4.60;3.03;;;;;;;19.77;44.37;93953.75;4988725;28;20430;-91
2023/05/27 11:32:41;;;;;;;6.05;3.15;;;;;;;19.77;44.50;93951.75;4939260;28;20053;-92
2023/05/27 11:35:15;;;;;;;3.95;3.10;;;;;;;19.76;44.74;93944.75;4971785;28;20061;-91
2023/05/27 11:37:57;;;;;;;6.35;4.13;;;;;;;19.77;44.46;93949.00;4996569;28;20055;-91
2023/05/27 11:40:33;;;;;;;7.65;3.05;;;;;;;19.78;44.55;93941.50;5000012;28;20427;-92
2023/05/27 11:43:00;;;;;;;5.45;3.13;;;;;;;19.77;44.51;93932.53;5026513;28;20034;-92
2023/05/27 11:45:31;;;;;;;6.65;3.33;;;;;;;19.78;44.94;93945.00;5007790;28;20046;-91
2023/05/27 11:48:25;;;;;;;6.07;2.70;;;;;;;19.78;44.58;93938.78;4960470;28;20034;-92
2023/05/27 11:50:54;;;;;;;6.43;2.55;;;;;;;19.79;44.73;93937.53;5016716;28;20042;-90
2023/05/27 11:53:23;;;;;;;4.93;3.38;;;;;;;19.77;44.87;93924.31;4987998;28;20043;-92
2023/05/27 11:55:53;;;;;;;5.78;2.60;;;;;;;19.77;44.84;93929.78;4954043;28;20096;-90
2023/05/27 11:58:20;;;;;;;4.13;2.50;;;;;;;19.77;44.83;93932.53;4974162;28;20054;-90
2023/05/27 12:00:46;;;;;;;4.75;2.83;;;;;;;19.78;44.99;93917.56;4951280;29;20051;-93